sensor_id;sensor_type;location;lat;lon;timestamp;temperature;humidity
33715;DHT22;20043;50.998;4.754;2023-11-21T00:00:37;11.40;99.90
33715;DHT22;20043;50.998;4.754;2023-11-21T00:03:02;11.50;99.90
33715;DHT22;20043;50.998;4.754;2023-11-21T00:05:29;11.40;99.90
33715;DHT22;20043;50.998;4.754;2023-11-21T00:07:55;11.30;99.90
33715;DHT22;20043;50.998;4.754;2023-11-21T00:10:20;11.40;99.90
33715;DHT22;20043;50.998;4.754;2023-11-21T00:12:46;11.50;99.90
33715;DHT22;20043;50.998;4.754;2023-11-21T00:15:13;11.50;99.90
33715;DHT22;20043;50.998;4.754;2023-11-21T00:17:39;11.50;99.90
33715;DHT22;20043;50.998;4.754;2023-11-21T00:20:08;11.30;99.90
33715;DHT22;20043;50.998;4.754;2023-11-21T00:22:37;11.30;99.90
33715;DHT22;20043;50.998;4.754;2023-11-21T00:25:02;11.40;99.90
33715;DHT22;20043;50.998;4.754;2023-11-21T00:27:29;11.40;99.90
33715;DHT22;20043;50.998;4.754;2023-11-21T00:29:55;11.40;99.90
33715;DHT22;20043;50.998;4.754;2023-11-21T00:32:20;11.40;99.90
33715;DHT22;20043;50.998;4.754;2023-11-21T00:34:46;11.40;99.90
33715;DHT22;20043;50.998;4.754;2023-11-21T00:37:11;11.30;99.90
33715;DHT22;20043;50.998;4.754;2023-11-21T00:39:37;11.30;99.90
33715;DHT22;20043;50.998;4.754;2023-11-21T00:42:03;11.50;99.90
33715;DHT22;20043;50.998;4.754;2023-11-21T00:44:30;11.40;99.90
33715;DHT22;20043;50.998;4.754;2023-11-21T00:46:55;11.40;99.90
33715;DHT22;20043;50.998;4.754;2023-11-21T00:49:21;11.10;99.90
33715;DHT22;20043;50.998;4.754;2023-11-21T00:51:47;11.20;99.90
33715;DHT22;20043;50.998;4.754;2023-11-21T00:54:12;11.10;99.90
33715;DHT22;20043;50.998;4.754;2023-11-21T00:56:38;11.00;99.90
33715;DHT22;20043;50.998;4.754;2023-11-21T00:59:05;11.00;99.90
33715;DHT22;20043;50.998;4.754;2023-11-21T01:01:31;11.00;99.90
33715;DHT22;20043;50.998;4.754;2023-11-21T01:03:56;10.90;99.90
33715;DHT22;20043;50.998;4.754;2023-11-21T01:06:22;10.90;99.90
33715;DHT22;20043;50.998;4.754;2023-11-21T01:08:47;10.90;99.90
33715;DHT22;20043;50.998;4.754;2023-11-21T01:11:13;10.80;99.90
33715;DHT22;20043;50.998;4.754;2023-11-21T01:13:40;10.80;99.90
33715;DHT22;20043;50.998;4.754;2023-11-21T01:16:06;10.80;99.90
33715;DHT22;20043;50.998;4.754;2023-11-21T01:18:32;10.80;99.90
33715;DHT22;20043;50.998;4.754;2023-11-21T01:20:58;10.70;99.90
33715;DHT22;20043;50.998;4.754;2023-11-21T01:23:26;10.70;99.90
33715;DHT22;20043;50.998;4.754;2023-11-21T01:25:52;10.80;99.90
33715;DHT22;20043;50.998;4.754;2023-11-21T01:28:18;10.70;99.90
33715;DHT22;20043;50.998;4.754;2023-11-21T01:30:45;10.70;99.90
33715;DHT22;20043;50.998;4.754;2023-11-21T01:33:11;10.80;99.90
33715;DHT22;20043;50.998;4.754;2023-11-21T01:35:36;10.70;99.90
33715;DHT22;20043;50.998;4.754;2023-11-21T01:38:02;10.70;99.90
33715;DHT22;20043;50.998;4.754;2023-11-21T01:40:29;10.70;99.90
33715;DHT22;20043;50.998;4.754;2023-11-21T01:42:55;10.60;99.90
33715;DHT22;20043;50.998;4.754;2023-11-21T01:45:21;10.70;99.90
33715;DHT22;20043;50.998;4.754;2023-11-21T01:47:47;10.70;99.90
33715;DHT22;20043;50.998;4.754;2023-11-21T01:50:15;10.60;99.90
33715;DHT22;20043;50.998;4.754;2023-11-21T01:52:47;10.60;99.90
33715;DHT22;20043;50.998;4.754;2023-11-21T01:55:15;10.60;99.90
33715;DHT22;20043;50.998;4.754;2023-11-21T01:57:43;10.50;99.90
33715;DHT22;20043;50.998;4.754;2023-11-21T02:00:09;10.60;99.90
33715;DHT22;20043;50.998;4.754;2023-11-21T02:02:44;10.60;99.90
33715;DHT22;20043;50.998;4.754;2023-11-21T02:05:11;10.50;99.90
33715;DHT22;20043;50.998;4.754;2023-11-21T02:07:41;10.50;99.90
33715;DHT22;20043;50.998;4.754;2023-11-21T02:10:08;10.50;99.90
33715;DHT22;20043;50.998;4.754;2023-11-21T02:12:34;10.40;99.90
33715;DHT22;20043;50.998;4.754;2023-11-21T02:15:04;10.40;99.90
33715;DHT22;20043;50.998;4.754;2023-11-21T02:17:35;10.30;99.90
33715;DHT22;20043;50.998;4.754;2023-11-21T02:20:01;10.20;99.90
33715;DHT22;20043;50.998;4.754;2023-11-21T02:22:31;10.30;99.90
33715;DHT22;20043;50.998;4.754;2023-11-21T02:24:59;10.20;99.90
33715;DHT22;20043;50.998;4.754;2023-11-21T02:27:24;10.30;99.90
33715;DHT22;20043;50.998;4.754;2023-11-21T02:29:52;10.40;99.90
33715;DHT22;20043;50.998;4.754;2023-11-21T02:32:18;10.40;99.90
33715;DHT22;20043;50.998;4.754;2023-11-21T02:34:45;10.40;99.90
33715;DHT22;20043;50.998;4.754;2023-11-21T02:37:10;10.40;99.90
33715;DHT22;20043;50.998;4.754;2023-11-21T02:39:36;10.40;99.90
33715;DHT22;20043;50.998;4.754;2023-11-21T02:42:02;10.50;99.90
33715;DHT22;20043;50.998;4.754;2023-11-21T02:44:27;10.50;99.90
33715;DHT22;20043;50.998;4.754;2023-11-21T02:46:53;10.50;99.90
33715;DHT22;20043;50.998;4.754;2023-11-21T02:49:18;10.60;99.90
33715;DHT22;20043;50.998;4.754;2023-11-21T02:51:44;10.40;99.90
33715;DHT22;20043;50.998;4.754;2023-11-21T02:54:09;10.40;99.90
33715;DHT22;20043;50.998;4.754;2023-11-21T02:56:35;10.40;99.90
33715;DHT22;20043;50.998;4.754;2023-11-21T02:59:01;10.40;99.90
33715;DHT22;20043;50.998;4.754;2023-11-21T03:01:27;10.50;99.90
33715;DHT22;20043;50.998;4.754;2023-11-21T03:03:53;10.60;99.90
33715;DHT22;20043;50.998;4.754;2023-11-21T03:06:20;10.50;99.90
33715;DHT22;20043;50.998;4.754;2023-11-21T03:08:46;10.40;99.90
33715;DHT22;20043;50.998;4.754;2023-11-21T03:11:13;10.50;99.90
33715;DHT22;20043;50.998;4.754;2023-11-21T03:13:42;10.50;99.90
33715;DHT22;20043;50.998;4.754;2023-11-21T03:16:09;10.40;99.90
33715;DHT22;20043;50.998;4.754;2023-11-21T03:18:34;10.50;99.90
33715;DHT22;20043;50.998;4.754;2023-11-21T03:21:00;10.50;99.90
33715;DHT22;20043;50.998;4.754;2023-11-21T03:23:25;10.40;99.90
33715;DHT22;20043;50.998;4.754;2023-11-21T03:25:51;10.40;99.90
33715;DHT22;20043;50.998;4.754;2023-11-21T03:28:17;10.50;99.90
33715;DHT22;20043;50.998;4.754;2023-11-21T03:30:43;10.50;99.90
33715;DHT22;20043;50.998;4.754;2023-11-21T03:33:08;10.50;99.90
33715;DHT22;20043;50.998;4.754;2023-11-21T03:35:34;10.50;99.90
33715;DHT22;20043;50.998;4.754;2023-11-21T03:38:00;10.50;99.90
33715;DHT22;20043;50.998;4.754;2023-11-21T03:40:26;10.50;99.90
33715;DHT22;20043;50.998;4.754;2023-11-21T03:42:51;10.60;99.90
33715;DHT22;20043;50.998;4.754;2023-11-21T03:45:17;10.70;99.90
33715;DHT22;20043;50.998;4.754;2023-11-21T03:47:43;10.60;99.90
33715;DHT22;20043;50.998;4.754;2023-11-21T03:50:09;10.60;99.90
33715;DHT22;20043;50.998;4.754;2023-11-21T03:52:35;10.70;99.90
33715;DHT22;20043;50.998;4.754;2023-11-21T03:55:01;10.70;99.90
33715;DHT22;20043;50.998;4.754;2023-11-21T03:57:27;10.70;99.90
33715;DHT22;20043;50.998;4.754;2023-11-21T03:59:53;10.80;99.90
33715;DHT22;20043;50.998;4.754;2023-11-21T04:02:19;10.80;99.90
33715;DHT22;20043;50.998;4.754;2023-11-21T04:04:44;10.80;99.90
33715;DHT22;20043;50.998;4.754;2023-11-21T04:07:10;10.70;99.90
33715;DHT22;20043;50.998;4.754;2023-11-21T04:09:36;10.70;99.90
33715;DHT22;20043;50.998;4.754;2023-11-21T04:12:02;10.70;99.90
33715;DHT22;20043;50.998;4.754;2023-11-21T04:14:28;10.80;99.90
33715;DHT22;20043;50.998;4.754;2023-11-21T04:16:53;10.90;99.90
33715;DHT22;20043;50.998;4.754;2023-11-21T04:19:19;10.90;99.90
33715;DHT22;20043;50.998;4.754;2023-11-21T04:21:45;11.00;99.90
33715;DHT22;20043;50.998;4.754;2023-11-21T04:24:11;10.90;99.90
33715;DHT22;20043;50.998;4.754;2023-11-21T04:26:37;10.90;99.90
33715;DHT22;20043;50.998;4.754;2023-11-21T04:29:03;11.00;99.90
33715;DHT22;20043;50.998;4.754;2023-11-21T04:31:30;11.00;99.90
33715;DHT22;20043;50.998;4.754;2023-11-21T04:33:55;11.00;99.90
33715;DHT22;20043;50.998;4.754;2023-11-21T04:36:21;11.20;99.90
33715;DHT22;20043;50.998;4.754;2023-11-21T04:38:46;11.40;99.90
33715;DHT22;20043;50.998;4.754;2023-11-21T04:41:12;11.50;99.90
33715;DHT22;20043;50.998;4.754;2023-11-21T04:43:37;11.30;99.90
33715;DHT22;20043;50.998;4.754;2023-11-21T04:46:03;11.20;99.90
33715;DHT22;20043;50.998;4.754;2023-11-21T04:48:29;11.00;99.90
33715;DHT22;20043;50.998;4.754;2023-11-21T04:50:54;11.00;99.90
33715;DHT22;20043;50.998;4.754;2023-11-21T04:53:20;11.10;99.90
33715;DHT22;20043;50.998;4.754;2023-11-21T04:55:45;11.00;99.90
33715;DHT22;20043;50.998;4.754;2023-11-21T04:58:12;11.00;99.90
33715;DHT22;20043;50.998;4.754;2023-11-21T05:00:37;11.10;99.90
33715;DHT22;20043;50.998;4.754;2023-11-21T05:03:03;11.10;99.90
33715;DHT22;20043;50.998;4.754;2023-11-21T05:05:29;11.20;99.90
33715;DHT22;20043;50.998;4.754;2023-11-21T05:07:55;11.10;99.90
33715;DHT22;20043;50.998;4.754;2023-11-21T05:10:21;11.20;99.90
33715;DHT22;20043;50.998;4.754;2023-11-21T05:12:50;11.20;99.90
33715;DHT22;20043;50.998;4.754;2023-11-21T05:15:16;11.20;99.90
33715;DHT22;20043;50.998;4.754;2023-11-21T05:17:45;11.30;99.90
33715;DHT22;20043;50.998;4.754;2023-11-21T05:20:12;11.20;99.90
33715;DHT22;20043;50.998;4.754;2023-11-21T05:22:39;11.20;99.90
33715;DHT22;20043;50.998;4.754;2023-11-21T05:25:06;11.20;99.90
33715;DHT22;20043;50.998;4.754;2023-11-21T05:27:33;11.20;99.90
33715;DHT22;20043;50.998;4.754;2023-11-21T05:30:03;11.40;99.90
33715;DHT22;20043;50.998;4.754;2023-11-21T05:32:33;11.40;99.90
33715;DHT22;20043;50.998;4.754;2023-11-21T05:35:11;11.50;99.90
33715;DHT22;20043;50.998;4.754;2023-11-21T05:37:41;11.50;99.90
33715;DHT22;20043;50.998;4.754;2023-11-21T05:40:07;11.50;99.90
33715;DHT22;20043;50.998;4.754;2023-11-21T05:42:34;11.40;99.90
33715;DHT22;20043;50.998;4.754;2023-11-21T05:45:00;11.40;99.90
33715;DHT22;20043;50.998;4.754;2023-11-21T05:47:37;11.30;99.90
33715;DHT22;20043;50.998;4.754;2023-11-21T05:50:05;11.20;99.90
33715;DHT22;20043;50.998;4.754;2023-11-21T05:52:31;11.30;99.90
33715;DHT22;20043;50.998;4.754;2023-11-21T05:54:58;11.30;99.90
33715;DHT22;20043;50.998;4.754;2023-11-21T05:57:23;11.50;99.90
33715;DHT22;20043;50.998;4.754;2023-11-21T05:59:49;11.50;99.90
33715;DHT22;20043;50.998;4.754;2023-11-21T06:02:14;11.50;99.90
33715;DHT22;20043;50.998;4.754;2023-11-21T06:04:40;11.50;99.90
33715;DHT22;20043;50.998;4.754;2023-11-21T06:07:05;11.60;99.90
33715;DHT22;20043;50.998;4.754;2023-11-21T06:09:31;11.60;99.90
33715;DHT22;20043;50.998;4.754;2023-11-21T06:11:57;11.60;99.90
33715;DHT22;20043;50.998;4.754;2023-11-21T06:14:22;11.70;99.90
33715;DHT22;20043;50.998;4.754;2023-11-21T06:16:48;11.70;99.90
33715;DHT22;20043;50.998;4.754;2023-11-21T06:19:16;11.60;99.90
33715;DHT22;20043;50.998;4.754;2023-11-21T06:21:45;11.60;99.90
33715;DHT22;20043;50.998;4.754;2023-11-21T06:24:12;11.60;99.90
33715;DHT22;20043;50.998;4.754;2023-11-21T06:26:38;11.60;99.90
33715;DHT22;20043;50.998;4.754;2023-11-21T06:29:03;11.70;99.90
33715;DHT22;20043;50.998;4.754;2023-11-21T06:31:29;11.60;99.90
33715;DHT22;20043;50.998;4.754;2023-11-21T06:33:55;11.60;99.90
33715;DHT22;20043;50.998;4.754;2023-11-21T06:36:21;11.60;99.90
33715;DHT22;20043;50.998;4.754;2023-11-21T06:38:47;11.70;99.90
33715;DHT22;20043;50.998;4.754;2023-11-21T06:41:13;11.70;99.90
33715;DHT22;20043;50.998;4.754;2023-11-21T06:43:40;11.70;99.90
33715;DHT22;20043;50.998;4.754;2023-11-21T06:46:06;11.80;99.90
33715;DHT22;20043;50.998;4.754;2023-11-21T06:48:32;12.00;99.90
33715;DHT22;20043;50.998;4.754;2023-11-21T06:50:57;12.20;99.90
33715;DHT22;20043;50.998;4.754;2023-11-21T06:53:23;11.90;99.90
33715;DHT22;20043;50.998;4.754;2023-11-21T06:55:48;11.80;99.90
33715;DHT22;20043;50.998;4.754;2023-11-21T06:58:14;11.70;99.90
33715;DHT22;20043;50.998;4.754;2023-11-21T07:00:40;11.60;99.90
33715;DHT22;20043;50.998;4.754;2023-11-21T07:03:05;11.80;99.90
33715;DHT22;20043;50.998;4.754;2023-11-21T07:05:31;11.70;99.90
33715;DHT22;20043;50.998;4.754;2023-11-21T07:07:57;11.60;99.90
33715;DHT22;20043;50.998;4.754;2023-11-21T07:10:25;11.60;99.90
33715;DHT22;20043;50.998;4.754;2023-11-21T07:12:51;11.60;99.90
33715;DHT22;20043;50.998;4.754;2023-11-21T07:15:17;11.80;99.90
33715;DHT22;20043;50.998;4.754;2023-11-21T07:17:44;11.70;99.90
33715;DHT22;20043;50.998;4.754;2023-11-21T07:20:12;11.90;99.90
33715;DHT22;20043;50.998;4.754;2023-11-21T07:22:37;11.90;99.90
33715;DHT22;20043;50.998;4.754;2023-11-21T07:25:03;12.00;99.90
33715;DHT22;20043;50.998;4.754;2023-11-21T07:27:29;12.10;99.90
33715;DHT22;20043;50.998;4.754;2023-11-21T07:29:55;12.20;99.90
33715;DHT22;20043;50.998;4.754;2023-11-21T07:32:20;12.20;99.90
33715;DHT22;20043;50.998;4.754;2023-11-21T07:34:46;12.10;99.90
33715;DHT22;20043;50.998;4.754;2023-11-21T07:37:11;12.00;99.90
33715;DHT22;20043;50.998;4.754;2023-11-21T07:39:37;12.00;99.90
33715;DHT22;20043;50.998;4.754;2023-11-21T07:42:07;12.00;99.90
33715;DHT22;20043;50.998;4.754;2023-11-21T07:44:32;12.10;99.90
33715;DHT22;20043;50.998;4.754;2023-11-21T07:46:58;12.10;99.90
33715;DHT22;20043;50.998;4.754;2023-11-21T07:49:24;12.10;99.90
33715;DHT22;20043;50.998;4.754;2023-11-21T07:51:50;12.10;99.90
33715;DHT22;20043;50.998;4.754;2023-11-21T07:54:16;12.20;99.90
33715;DHT22;20043;50.998;4.754;2023-11-21T07:56:41;12.20;99.90
33715;DHT22;20043;50.998;4.754;2023-11-21T07:59:07;12.20;99.90
33715;DHT22;20043;50.998;4.754;2023-11-21T08:01:33;12.30;99.90
33715;DHT22;20043;50.998;4.754;2023-11-21T08:04:06;12.30;99.90
33715;DHT22;20043;50.998;4.754;2023-11-21T08:06:33;12.30;99.90
33715;DHT22;20043;50.998;4.754;2023-11-21T08:08:59;12.30;99.90
33715;DHT22;20043;50.998;4.754;2023-11-21T08:11:25;12.40;99.90
33715;DHT22;20043;50.998;4.754;2023-11-21T08:13:51;12.40;99.90
33715;DHT22;20043;50.998;4.754;2023-11-21T08:16:17;12.40;99.90
33715;DHT22;20043;50.998;4.754;2023-11-21T08:18:56;12.30;99.90
33715;DHT22;20043;50.998;4.754;2023-11-21T08:21:22;12.30;99.90
33715;DHT22;20043;50.998;4.754;2023-11-21T08:23:54;12.30;99.90
33715;DHT22;20043;50.998;4.754;2023-11-21T08:26:22;12.30;99.90
33715;DHT22;20043;50.998;4.754;2023-11-21T08:28:48;12.30;99.90
33715;DHT22;20043;50.998;4.754;2023-11-21T08:31:13;12.20;99.90
33715;DHT22;20043;50.998;4.754;2023-11-21T08:33:39;12.20;99.90
33715;DHT22;20043;50.998;4.754;2023-11-21T08:36:08;12.20;99.90
33715;DHT22;20043;50.998;4.754;2023-11-21T08:41:06;12.20;99.90
33715;DHT22;20043;50.998;4.754;2023-11-21T08:43:36;12.30;99.90
33715;DHT22;20043;50.998;4.754;2023-11-21T08:46:05;12.30;99.90
33715;DHT22;20043;50.998;4.754;2023-11-21T08:48:31;12.30;99.90
33715;DHT22;20043;50.998;4.754;2023-11-21T08:50:57;12.30;99.90
33715;DHT22;20043;50.998;4.754;2023-11-21T08:53:22;12.30;99.90
33715;DHT22;20043;50.998;4.754;2023-11-21T08:55:48;12.30;99.90
33715;DHT22;20043;50.998;4.754;2023-11-21T08:58:15;12.30;99.90
33715;DHT22;20043;50.998;4.754;2023-11-21T09:00:41;12.40;99.90
33715;DHT22;20043;50.998;4.754;2023-11-21T09:03:06;12.50;99.90
33715;DHT22;20043;50.998;4.754;2023-11-21T09:05:39;12.60;99.90
33715;DHT22;20043;50.998;4.754;2023-11-21T09:08:05;12.60;99.90
33715;DHT22;20043;50.998;4.754;2023-11-21T09:10:33;12.70;99.90
33715;DHT22;20043;50.998;4.754;2023-11-21T09:13:01;12.70;99.90
33715;DHT22;20043;50.998;4.754;2023-11-21T09:15:27;12.70;99.90
33715;DHT22;20043;50.998;4.754;2023-11-21T09:17:53;12.70;99.90
33715;DHT22;20043;50.998;4.754;2023-11-21T09:20:18;12.80;99.90
33715;DHT22;20043;50.998;4.754;2023-11-21T09:22:48;12.90;99.90
33715;DHT22;20043;50.998;4.754;2023-11-21T09:25:14;12.80;99.90
33715;DHT22;20043;50.998;4.754;2023-11-21T09:27:40;12.90;99.90
33715;DHT22;20043;50.998;4.754;2023-11-21T09:30:07;12.90;99.90
33715;DHT22;20043;50.998;4.754;2023-11-21T09:32:37;12.80;99.90
33715;DHT22;20043;50.998;4.754;2023-11-21T09:35:04;12.60;99.90
33715;DHT22;20043;50.998;4.754;2023-11-21T09:37:30;12.70;99.90
33715;DHT22;20043;50.998;4.754;2023-11-21T09:39:56;12.70;99.90
33715;DHT22;20043;50.998;4.754;2023-11-21T09:42:36;12.80;99.90
33715;DHT22;20043;50.998;4.754;2023-11-21T09:45:09;12.80;99.90
33715;DHT22;20043;50.998;4.754;2023-11-21T09:47:39;12.80;99.90
33715;DHT22;20043;50.998;4.754;2023-11-21T09:50:06;12.90;99.90
33715;DHT22;20043;50.998;4.754;2023-11-21T09:52:45;12.90;99.90
33715;DHT22;20043;50.998;4.754;2023-11-21T09:55:16;13.00;99.90
33715;DHT22;20043;50.998;4.754;2023-11-21T09:57:45;13.10;99.90
33715;DHT22;20043;50.998;4.754;2023-11-21T10:00:11;13.10;99.90
33715;DHT22;20043;50.998;4.754;2023-11-21T10:02:38;13.00;99.90
33715;DHT22;20043;50.998;4.754;2023-11-21T10:05:06;13.00;99.90
33715;DHT22;20043;50.998;4.754;2023-11-21T10:07:34;12.90;99.90
33715;DHT22;20043;50.998;4.754;2023-11-21T10:10:01;12.80;99.90
33715;DHT22;20043;50.998;4.754;2023-11-21T10:12:28;12.70;99.90
33715;DHT22;20043;50.998;4.754;2023-11-21T10:14:57;12.80;99.90
33715;DHT22;20043;50.998;4.754;2023-11-21T10:17:24;12.80;99.90
33715;DHT22;20043;50.998;4.754;2023-11-21T10:19:53;12.90;99.90
33715;DHT22;20043;50.998;4.754;2023-11-21T10:22:20;12.90;99.90
33715;DHT22;20043;50.998;4.754;2023-11-21T10:24:46;12.90;99.90
33715;DHT22;20043;50.998;4.754;2023-11-21T10:27:11;12.90;99.90
33715;DHT22;20043;50.998;4.754;2023-11-21T10:29:39;13.10;99.90
33715;DHT22;20043;50.998;4.754;2023-11-21T10:32:05;13.00;99.90
33715;DHT22;20043;50.998;4.754;2023-11-21T10:34:31;13.10;99.90
33715;DHT22;20043;50.998;4.754;2023-11-21T10:36:57;13.10;99.90
33715;DHT22;20043;50.998;4.754;2023-11-21T10:39:24;13.10;99.90
33715;DHT22;20043;50.998;4.754;2023-11-21T10:41:54;13.00;99.90
33715;DHT22;20043;50.998;4.754;2023-11-21T10:44:20;13.10;99.90
33715;DHT22;20043;50.998;4.754;2023-11-21T10:46:55;13.20;99.90
33715;DHT22;20043;50.998;4.754;2023-11-21T10:49:25;13.20;99.90
33715;DHT22;20043;50.998;4.754;2023-11-21T10:51:55;13.20;99.90
33715;DHT22;20043;50.998;4.754;2023-11-21T10:54:22;13.20;99.90
33715;DHT22;20043;50.998;4.754;2023-11-21T10:56:57;13.20;99.90
33715;DHT22;20043;50.998;4.754;2023-11-21T10:59:25;13.20;99.90
33715;DHT22;20043;50.998;4.754;2023-11-21T11:01:54;13.10;99.90
33715;DHT22;20043;50.998;4.754;2023-11-21T11:04:23;13.10;99.90
33715;DHT22;20043;50.998;4.754;2023-11-21T11:06:56;13.10;99.90
33715;DHT22;20043;50.998;4.754;2023-11-21T11:09:22;13.10;99.90
33715;DHT22;20043;50.998;4.754;2023-11-21T11:11:48;13.10;99.90
33715;DHT22;20043;50.998;4.754;2023-11-21T11:14:14;13.10;99.90
33715;DHT22;20043;50.998;4.754;2023-11-21T11:16:41;13.10;99.90
33715;DHT22;20043;50.998;4.754;2023-11-21T11:19:08;13.00;99.90
33715;DHT22;20043;50.998;4.754;2023-11-21T11:21:46;13.10;99.90
33715;DHT22;20043;50.998;4.754;2023-11-21T11:26:56;12.90;99.90
33715;DHT22;20043;50.998;4.754;2023-11-21T11:32:08;12.80;99.90
33715;DHT22;20043;50.998;4.754;2023-11-21T11:34:39;12.70;99.90
33715;DHT22;20043;50.998;4.754;2023-11-21T11:37:08;12.80;99.90
33715;DHT22;20043;50.998;4.754;2023-11-21T11:39:41;12.90;99.90
33715;DHT22;20043;50.998;4.754;2023-11-21T11:42:16;12.90;99.90
33715;DHT22;20043;50.998;4.754;2023-11-21T11:47:30;13.00;99.90
33715;DHT22;20043;50.998;4.754;2023-11-21T11:50:11;13.10;99.90
33715;DHT22;20043;50.998;4.754;2023-11-21T11:52:51;13.10;99.90
33715;DHT22;20043;50.998;4.754;2023-11-21T11:55:19;13.10;99.90
33715;DHT22;20043;50.998;4.754;2023-11-21T11:57:47;13.20;99.90
33715;DHT22;20043;50.998;4.754;2023-11-21T12:02:56;13.10;99.90
33715;DHT22;20043;50.998;4.754;2023-11-21T12:05:23;13.20;99.90
33715;DHT22;20043;50.998;4.754;2023-11-21T12:07:55;13.10;99.90
33715;DHT22;20043;50.998;4.754;2023-11-21T12:10:24;13.20;99.90
33715;DHT22;20043;50.998;4.754;2023-11-21T12:13:05;13.20;99.90
33715;DHT22;20043;50.998;4.754;2023-11-21T12:15:35;13.10;99.90
33715;DHT22;20043;50.998;4.754;2023-11-21T12:18:01;13.00;99.90
33715;DHT22;20043;50.998;4.754;2023-11-21T12:20:27;13.10;99.90
33715;DHT22;20043;50.998;4.754;2023-11-21T12:22:55;13.20;99.90
33715;DHT22;20043;50.998;4.754;2023-11-21T12:25:24;13.40;99.90
33715;DHT22;20043;50.998;4.754;2023-11-21T12:27:54;13.40;99.90
33715;DHT22;20043;50.998;4.754;2023-11-21T12:30:22;13.40;99.90
33715;DHT22;20043;50.998;4.754;2023-11-21T12:32:50;13.50;99.90
33715;DHT22;20043;50.998;4.754;2023-11-21T12:35:17;13.50;99.90
33715;DHT22;20043;50.998;4.754;2023-11-21T12:37:45;13.50;99.90
33715;DHT22;20043;50.998;4.754;2023-11-21T12:40:12;13.60;99.90
33715;DHT22;20043;50.998;4.754;2023-11-21T12:42:41;13.80;99.90
33715;DHT22;20043;50.998;4.754;2023-11-21T12:50:12;13.80;99.90
33715;DHT22;20043;50.998;4.754;2023-11-21T12:52:45;13.90;99.90
33715;DHT22;20043;50.998;4.754;2023-11-21T12:55:20;13.90;99.90
33715;DHT22;20043;50.998;4.754;2023-11-21T12:57:54;13.90;99.90
33715;DHT22;20043;50.998;4.754;2023-11-21T13:00:29;13.80;99.90
33715;DHT22;20043;50.998;4.754;2023-11-21T13:02:58;13.60;99.90
33715;DHT22;20043;50.998;4.754;2023-11-21T13:05:28;13.10;99.90
33715;DHT22;20043;50.998;4.754;2023-11-21T13:07:57;12.90;99.90
33715;DHT22;20043;50.998;4.754;2023-11-21T13:10:25;12.60;99.90
33715;DHT22;20043;50.998;4.754;2023-11-21T13:12:57;12.60;99.90
33715;DHT22;20043;50.998;4.754;2023-11-21T13:15:24;12.80;99.90
33715;DHT22;20043;50.998;4.754;2023-11-21T13:17:51;12.90;99.90
33715;DHT22;20043;50.998;4.754;2023-11-21T13:20:17;12.90;99.90
33715;DHT22;20043;50.998;4.754;2023-11-21T13:22:55;13.00;99.90
33715;DHT22;20043;50.998;4.754;2023-11-21T13:25:29;13.20;99.90
33715;DHT22;20043;50.998;4.754;2023-11-21T13:27:58;13.10;99.90
33715;DHT22;20043;50.998;4.754;2023-11-21T13:30:25;13.20;99.90
33715;DHT22;20043;50.998;4.754;2023-11-21T13:32:59;13.20;99.90
33715;DHT22;20043;50.998;4.754;2023-11-21T13:35:30;13.30;99.90
33715;DHT22;20043;50.998;4.754;2023-11-21T13:38:20;13.10;99.90
33715;DHT22;20043;50.998;4.754;2023-11-21T13:40:52;13.20;99.90
33715;DHT22;20043;50.998;4.754;2023-11-21T13:43:22;13.30;99.90
33715;DHT22;20043;50.998;4.754;2023-11-21T13:45:50;13.60;99.90
33715;DHT22;20043;50.998;4.754;2023-11-21T13:48:23;13.70;99.90
33715;DHT22;20043;50.998;4.754;2023-11-21T13:51:06;13.70;99.90
33715;DHT22;20043;50.998;4.754;2023-11-21T13:53:46;13.70;99.90
33715;DHT22;20043;50.998;4.754;2023-11-21T13:56:15;13.70;99.90
33715;DHT22;20043;50.998;4.754;2023-11-21T13:58:45;13.80;99.90
33715;DHT22;20043;50.998;4.754;2023-11-21T14:01:17;13.80;99.90
33715;DHT22;20043;50.998;4.754;2023-11-21T14:04:02;13.80;99.90
33715;DHT22;20043;50.998;4.754;2023-11-21T14:06:46;13.80;99.90
33715;DHT22;20043;50.998;4.754;2023-11-21T14:09:19;13.80;99.90
33715;DHT22;20043;50.998;4.754;2023-11-21T14:11:57;13.70;99.90
33715;DHT22;20043;50.998;4.754;2023-11-21T14:14:25;13.80;99.90
33715;DHT22;20043;50.998;4.754;2023-11-21T14:16:51;13.80;99.90
33715;DHT22;20043;50.998;4.754;2023-11-21T14:19:18;13.80;99.90
33715;DHT22;20043;50.998;4.754;2023-11-21T14:21:44;13.90;99.90
33715;DHT22;20043;50.998;4.754;2023-11-21T14:24:11;13.80;99.90
33715;DHT22;20043;50.998;4.754;2023-11-21T14:26:41;13.70;99.90
33715;DHT22;20043;50.998;4.754;2023-11-21T14:29:08;13.60;99.90
33715;DHT22;20043;50.998;4.754;2023-11-21T14:31:34;13.60;99.90
33715;DHT22;20043;50.998;4.754;2023-11-21T14:34:00;13.30;99.90
33715;DHT22;20043;50.998;4.754;2023-11-21T14:36:29;13.30;99.90
33715;DHT22;20043;50.998;4.754;2023-11-21T14:38:55;13.30;99.90
33715;DHT22;20043;50.998;4.754;2023-11-21T14:41:21;13.40;99.90
33715;DHT22;20043;50.998;4.754;2023-11-21T14:43:47;13.20;99.90
33715;DHT22;20043;50.998;4.754;2023-11-21T14:46:15;13.20;99.90
33715;DHT22;20043;50.998;4.754;2023-11-21T14:48:42;13.20;99.90
33715;DHT22;20043;50.998;4.754;2023-11-21T14:51:09;13.00;99.90
33715;DHT22;20043;50.998;4.754;2023-11-21T14:53:40;13.00;99.90
33715;DHT22;20043;50.998;4.754;2023-11-21T14:56:14;13.10;99.90
33715;DHT22;20043;50.998;4.754;2023-11-21T14:58:48;13.00;99.90
33715;DHT22;20043;50.998;4.754;2023-11-21T15:01:14;13.00;99.90
33715;DHT22;20043;50.998;4.754;2023-11-21T15:03:40;13.20;99.90
33715;DHT22;20043;50.998;4.754;2023-11-21T15:06:10;13.20;99.90
33715;DHT22;20043;50.998;4.754;2023-11-21T15:08:51;13.10;99.90
33715;DHT22;20043;50.998;4.754;2023-11-21T15:11:32;13.10;99.90
33715;DHT22;20043;50.998;4.754;2023-11-21T15:13:58;13.30;99.90
33715;DHT22;20043;50.998;4.754;2023-11-21T15:16:24;13.30;99.90
33715;DHT22;20043;50.998;4.754;2023-11-21T15:18:52;13.30;99.90
33715;DHT22;20043;50.998;4.754;2023-11-21T15:21:18;13.40;99.90
33715;DHT22;20043;50.998;4.754;2023-11-21T15:23:45;13.50;99.90
33715;DHT22;20043;50.998;4.754;2023-11-21T15:26:10;13.50;99.90
33715;DHT22;20043;50.998;4.754;2023-11-21T15:28:36;13.50;99.90
33715;DHT22;20043;50.998;4.754;2023-11-21T15:31:01;13.70;99.90
33715;DHT22;20043;50.998;4.754;2023-11-21T15:33:28;13.80;99.90
33715;DHT22;20043;50.998;4.754;2023-11-21T15:35:54;13.80;99.90
33715;DHT22;20043;50.998;4.754;2023-11-21T15:38:20;13.90;99.90
33715;DHT22;20043;50.998;4.754;2023-11-21T15:40:47;14.00;99.90
33715;DHT22;20043;50.998;4.754;2023-11-21T15:43:12;13.90;99.90
33715;DHT22;20043;50.998;4.754;2023-11-21T15:45:39;13.90;99.90
33715;DHT22;20043;50.998;4.754;2023-11-21T15:48:05;13.90;99.90
33715;DHT22;20043;50.998;4.754;2023-11-21T15:50:31;13.70;99.90